• Join FlightAware (Why Join?)
  • Login
  • US Flag 
06:24AM EDT


 

Airport Tracker/Info


-or-


 

Live Flight TrackerFlight Track Log ✈ CTL22 ✈ 22-May-2013 ✈ KAZO - KBKL

Flight Track Log - Related Links

Times and Time Zones

All times are in EDT time to prevent confusion due to time zone crossing. See the CTL22 flight status page for this flight to view local times or setup timezone preferences in your user account.

Time Position Orientation Groundspeed Altitude Reporting Facility
EDT Latitude Longitude Course Direction KTS MPH feet Rate Location/Type
08:07PM 42.2197 -85.4044 115° Southeast 151 174 4,000  Level Chicago Center
08:08PM 42.1964 -85.3394 116° Southeast 159 183 4,900 720 Climbing Chicago Center
08:09PM 42.1750 -85.2867 119° Southeast 160 184 5,600 600 Climbing Chicago Center
08:10PM 42.1676 -85.1554 103° East  Level Estimated
08:10PM 42.1533 -85.2347 119° Southeast 159 183 6,200  Level Chicago Center
08:11PM 42.1564 -85.0895 103° East  Level Estimated
08:11PM 42.1328 -85.1808 117° Southeast 160 184 6,700  Level Chicago Center
08:12PM 42.1103 -85.1272 119° Southeast 163 188 7,000 120 Climbing Chicago Center
08:13PM 42.0867 -85.0667 118° Southeast 174 200 7,000  Level Chicago Center
08:14PM 42.0586 -84.9919 117° Southeast 184 212 7,100  Climbing Chicago Center
08:15PM 42.0342 -84.9311 118° Southeast 185 213 7,000 -60 Descending Chicago Center
08:16PM 42.0106 -84.8683 117° Southeast 186 214 7,000 -60 Level Chicago Center
08:17PM 41.9892 -84.8042 114° Southeast 187 215 6,900  Descending Chicago Center
08:18PM 41.9658 -84.7411 116° Southeast 188 216 7,000  Climbing Chicago Center
08:19PM 41.9408 -84.6800 119° Southeast 187 215 7,000  Level Chicago Center
08:20PM 41.9153 -84.6186 119° Southeast 187 215 7,000  Level Chicago Center
08:21PM 41.8872 -84.5411 116° Southeast 192 221 7,000  Level Chicago Center
08:22PM 41.8658 -84.4772 114° Southeast 190 219 7,000  Level Chicago Center
08:23PM 41.8392 -84.4150 120° Southeast 190 219 7,000  Level Chicago Center
08:24PM 41.8139 -84.3531 119° Southeast 189 217 7,000  Level Chicago Center
08:25PM 41.7908 -84.2869 115° Southeast 192 221 7,000  Level Chicago Center
08:26PM 41.7669 -84.2250 117° Southeast 191 220 7,100  Climbing Chicago Center
08:28PM 41.7400 -84.1481 115° Southeast 191 220 7,000 -120 Descending Chicago Center